sensor_id;sensor_type;location;lat;lon;timestamp;P1;durP1;ratioP1;P2;durP2;ratioP2
22648;SDS011;11491;41.942;24.220;2022-11-23T00:01:36;4.50;;;2.47;;
22648;SDS011;11491;41.942;24.220;2022-11-23T00:04:04;5.20;;;3.33;;
22648;SDS011;11491;41.942;24.220;2022-11-23T00:06:32;5.35;;;2.65;;
22648;SDS011;11491;41.942;24.220;2022-11-23T00:08:59;0.38;;;0.22;;
22648;SDS011;11491;41.942;24.220;2022-11-23T00:11:27;0.20;;;0.20;;
22648;SDS011;11491;41.942;24.220;2022-11-23T00:13:54;0.35;;;0.20;;
22648;SDS011;11491;41.942;24.220;2022-11-23T00:16:24;0.10;;;0.10;;
22648;SDS011;11491;41.942;24.220;2022-11-23T00:18:52;1.30;;;0.20;;
22648;SDS011;11491;41.942;24.220;2022-11-23T00:21:20;0.20;;;0.15;;
22648;SDS011;11491;41.942;24.220;2022-11-23T00:23:47;1.00;;;0.47;;
22648;SDS011;11491;41.942;24.220;2022-11-23T00:26:15;0.35;;;0.20;;
22648;SDS011;11491;41.942;24.220;2022-11-23T00:28:43;0.65;;;0.47;;
22648;SDS011;11491;41.942;24.220;2022-11-23T00:31:11;0.20;;;0.20;;
22648;SDS011;11491;41.942;24.220;2022-11-23T00:33:41;0.10;;;0.10;;
22648;SDS011;11491;41.942;24.220;2022-11-23T00:36:09;2.45;;;0.20;;
22648;SDS011;11491;41.942;24.220;2022-11-23T00:38:37;0.95;;;0.20;;
22648;SDS011;11491;41.942;24.220;2022-11-23T00:41:05;0.00;;;0.00;;
22648;SDS011;11491;41.942;24.220;2022-11-23T00:43:33;0.10;;;0.10;;
22648;SDS011;11491;41.942;24.220;2022-11-23T00:46:03;0.52;;;0.28;;
22648;SDS011;11491;41.942;24.220;2022-11-23T00:48:31;0.13;;;0.13;;
22648;SDS011;11491;41.942;24.220;2022-11-23T00:51:00;0.10;;;0.10;;
22648;SDS011;11491;41.942;24.220;2022-11-23T00:53:28;0.10;;;0.10;;
22648;SDS011;11491;41.942;24.220;2022-11-23T00:55:55;0.20;;;0.10;;
22648;SDS011;11491;41.942;24.220;2022-11-23T00:58:22;0.85;;;0.20;;
22648;SDS011;11491;41.942;24.220;2022-11-23T01:00:50;0.20;;;0.20;;
22648;SDS011;11491;41.942;24.220;2022-11-23T01:03:26;0.20;;;0.20;;
22648;SDS011;11491;41.942;24.220;2022-11-23T01:05:53;1.08;;;0.20;;
22648;SDS011;11491;41.942;24.220;2022-11-23T01:08:21;2.38;;;0.65;;
22648;SDS011;11491;41.942;24.220;2022-11-23T01:10:48;0.50;;;0.20;;
22648;SDS011;11491;41.942;24.220;2022-11-23T01:13:15;0.43;;;0.20;;
22648;SDS011;11491;41.942;24.220;2022-11-23T01:15:47;0.57;;;0.20;;
22648;SDS011;11491;41.942;24.220;2022-11-23T01:18:14;0.50;;;0.30;;
22648;SDS011;11491;41.942;24.220;2022-11-23T01:20:41;0.52;;;0.20;;
22648;SDS011;11491;41.942;24.220;2022-11-23T01:23:07;9.20;;;3.92;;
22648;SDS011;11491;41.942;24.220;2022-11-23T01:25:35;16.48;;;8.10;;
22648;SDS011;11491;41.942;24.220;2022-11-23T01:28:02;5.10;;;1.70;;
22648;SDS011;11491;41.942;24.220;2022-11-23T01:30:29;2.13;;;0.90;;
22648;SDS011;11491;41.942;24.220;2022-11-23T01:32:58;4.05;;;1.55;;
22648;SDS011;11491;41.942;24.220;2022-11-23T01:35:25;8.38;;;3.78;;
22648;SDS011;11491;41.942;24.220;2022-11-23T01:37:52;6.38;;;2.42;;
22648;SDS011;11491;41.942;24.220;2022-11-23T01:40:18;7.53;;;3.97;;
22648;SDS011;11491;41.942;24.220;2022-11-23T01:42:48;5.93;;;3.88;;
22648;SDS011;11491;41.942;24.220;2022-11-23T01:47:59;3.80;;;3.00;;
22648;SDS011;11491;41.942;24.220;2022-11-23T01:50:27;1.55;;;0.80;;
22648;SDS011;11491;41.942;24.220;2022-11-23T01:52:55;2.95;;;1.40;;
22648;SDS011;11491;41.942;24.220;2022-11-23T01:55:23;3.60;;;1.88;;
22648;SDS011;11491;41.942;24.220;2022-11-23T01:57:53;0.22;;;0.20;;
22648;SDS011;11491;41.942;24.220;2022-11-23T02:00:20;0.95;;;0.50;;
22648;SDS011;11491;41.942;24.220;2022-11-23T02:02:49;1.30;;;0.63;;
22648;SDS011;11491;41.942;24.220;2022-11-23T02:05:20;5.97;;;2.73;;
22648;SDS011;11491;41.942;24.220;2022-11-23T02:07:50;4.95;;;2.30;;
22648;SDS011;11491;41.942;24.220;2022-11-23T02:10:17;0.38;;;0.28;;
22648;SDS011;11491;41.942;24.220;2022-11-23T02:12:45;22.00;;;11.15;;
22648;SDS011;11491;41.942;24.220;2022-11-23T02:15:13;2.20;;;1.02;;
22648;SDS011;11491;41.942;24.220;2022-11-23T02:17:40;6.95;;;3.55;;
22648;SDS011;11491;41.942;24.220;2022-11-23T02:20:09;10.35;;;3.83;;
22648;SDS011;11491;41.942;24.220;2022-11-23T02:22:39;1.63;;;0.95;;
22648;SDS011;11491;41.942;24.220;2022-11-23T02:25:18;21.05;;;10.10;;
22648;SDS011;11491;41.942;24.220;2022-11-23T02:27:57;23.65;;;11.57;;
22648;SDS011;11491;41.942;24.220;2022-11-23T02:30:25;5.40;;;3.58;;
22648;SDS011;11491;41.942;24.220;2022-11-23T02:32:53;0.80;;;0.65;;
22648;SDS011;11491;41.942;24.220;2022-11-23T02:35:21;1.55;;;0.77;;
22648;SDS011;11491;41.942;24.220;2022-11-23T02:37:47;1.50;;;0.63;;
22648;SDS011;11491;41.942;24.220;2022-11-23T02:40:19;2.20;;;1.27;;
22648;SDS011;11491;41.942;24.220;2022-11-23T02:42:52;2.80;;;1.98;;
22648;SDS011;11491;41.942;24.220;2022-11-23T02:45:23;1.92;;;1.50;;
22648;SDS011;11491;41.942;24.220;2022-11-23T02:47:56;2.33;;;1.05;;
22648;SDS011;11491;41.942;24.220;2022-11-23T02:50:23;1.33;;;0.85;;
22648;SDS011;11491;41.942;24.220;2022-11-23T02:52:49;7.30;;;4.05;;
22648;SDS011;11491;41.942;24.220;2022-11-23T02:55:16;12.00;;;9.38;;
22648;SDS011;11491;41.942;24.220;2022-11-23T02:57:43;12.10;;;9.00;;
22648;SDS011;11491;41.942;24.220;2022-11-23T03:00:10;19.83;;;12.15;;
22648;SDS011;11491;41.942;24.220;2022-11-23T03:02:39;24.65;;;17.75;;
22648;SDS011;11491;41.942;24.220;2022-11-23T03:05:06;12.48;;;8.90;;
22648;SDS011;11491;41.942;24.220;2022-11-23T03:07:33;4.78;;;2.88;;
22648;SDS011;11491;41.942;24.220;2022-11-23T03:10:00;9.05;;;8.18;;
22648;SDS011;11491;41.942;24.220;2022-11-23T03:12:27;15.05;;;10.05;;
22648;SDS011;11491;41.942;24.220;2022-11-23T03:14:54;14.77;;;9.65;;
22648;SDS011;11491;41.942;24.220;2022-11-23T03:17:21;16.00;;;11.93;;
22648;SDS011;11491;41.942;24.220;2022-11-23T03:19:49;14.02;;;12.63;;
22648;SDS011;11491;41.942;24.220;2022-11-23T03:22:15;9.65;;;8.65;;
22648;SDS011;11491;41.942;24.220;2022-11-23T03:24:42;8.38;;;6.32;;
22648;SDS011;11491;41.942;24.220;2022-11-23T03:27:09;7.10;;;4.53;;
22648;SDS011;11491;41.942;24.220;2022-11-23T03:29:36;6.57;;;4.30;;
22648;SDS011;11491;41.942;24.220;2022-11-23T03:32:03;11.70;;;10.32;;
22648;SDS011;11491;41.942;24.220;2022-11-23T03:34:30;16.35;;;14.63;;
22648;SDS011;11491;41.942;24.220;2022-11-23T03:36:58;24.33;;;18.17;;
22648;SDS011;11491;41.942;24.220;2022-11-23T03:39:25;23.23;;;17.45;;
22648;SDS011;11491;41.942;24.220;2022-11-23T03:41:51;22.70;;;15.05;;
22648;SDS011;11491;41.942;24.220;2022-11-23T03:44:18;21.27;;;16.83;;
22648;SDS011;11491;41.942;24.220;2022-11-23T03:46:45;21.50;;;17.60;;
22648;SDS011;11491;41.942;24.220;2022-11-23T03:49:12;27.92;;;22.20;;
22648;SDS011;11491;41.942;24.220;2022-11-23T03:51:38;21.65;;;17.60;;
22648;SDS011;11491;41.942;24.220;2022-11-23T03:54:07;26.20;;;19.77;;
22648;SDS011;11491;41.942;24.220;2022-11-23T03:56:33;22.45;;;16.40;;
22648;SDS011;11491;41.942;24.220;2022-11-23T03:59:00;21.77;;;16.58;;
22648;SDS011;11491;41.942;24.220;2022-11-23T04:01:27;9.85;;;7.82;;
22648;SDS011;11491;41.942;24.220;2022-11-23T04:03:54;15.15;;;10.05;;
22648;SDS011;11491;41.942;24.220;2022-11-23T04:06:20;19.45;;;12.10;;
22648;SDS011;11491;41.942;24.220;2022-11-23T04:08:47;14.77;;;10.80;;
22648;SDS011;11491;41.942;24.220;2022-11-23T04:11:16;14.65;;;11.70;;
22648;SDS011;11491;41.942;24.220;2022-11-23T04:13:43;12.45;;;8.98;;
22648;SDS011;11491;41.942;24.220;2022-11-23T04:16:10;14.35;;;10.40;;
22648;SDS011;11491;41.942;24.220;2022-11-23T04:18:37;19.83;;;12.93;;
22648;SDS011;11491;41.942;24.220;2022-11-23T04:21:03;20.85;;;14.77;;
22648;SDS011;11491;41.942;24.220;2022-11-23T04:23:30;24.33;;;18.05;;
22648;SDS011;11491;41.942;24.220;2022-11-23T04:25:57;18.20;;;13.52;;
22648;SDS011;11491;41.942;24.220;2022-11-23T04:28:25;17.63;;;12.55;;
22648;SDS011;11491;41.942;24.220;2022-11-23T04:30:52;20.52;;;13.00;;
22648;SDS011;11491;41.942;24.220;2022-11-23T04:33:19;8.52;;;6.55;;
22648;SDS011;11491;41.942;24.220;2022-11-23T04:35:45;29.08;;;22.02;;
22648;SDS011;11491;41.942;24.220;2022-11-23T04:38:12;27.92;;;23.17;;
22648;SDS011;11491;41.942;24.220;2022-11-23T04:40:39;12.10;;;9.93;;
22648;SDS011;11491;41.942;24.220;2022-11-23T04:43:05;3.58;;;2.03;;
22648;SDS011;11491;41.942;24.220;2022-11-23T04:45:37;21.48;;;17.08;;
22648;SDS011;11491;41.942;24.220;2022-11-23T04:48:04;19.27;;;17.27;;
22648;SDS011;11491;41.942;24.220;2022-11-23T04:50:31;7.07;;;6.05;;
22648;SDS011;11491;41.942;24.220;2022-11-23T04:52:59;6.47;;;5.30;;
22648;SDS011;11491;41.942;24.220;2022-11-23T04:55:26;10.18;;;7.53;;
22648;SDS011;11491;41.942;24.220;2022-11-23T04:57:53;23.25;;;13.23;;
22648;SDS011;11491;41.942;24.220;2022-11-23T05:00:19;36.67;;;21.02;;
22648;SDS011;11491;41.942;24.220;2022-11-23T05:02:48;14.07;;;10.02;;
22648;SDS011;11491;41.942;24.220;2022-11-23T05:05:14;22.35;;;12.30;;
22648;SDS011;11491;41.942;24.220;2022-11-23T05:07:41;17.17;;;12.27;;
22648;SDS011;11491;41.942;24.220;2022-11-23T05:10:08;34.67;;;29.58;;
22648;SDS011;11491;41.942;24.220;2022-11-23T05:12:35;26.08;;;18.00;;
22648;SDS011;11491;41.942;24.220;2022-11-23T05:15:03;13.23;;;11.27;;
22648;SDS011;11491;41.942;24.220;2022-11-23T05:17:30;11.80;;;9.65;;
22648;SDS011;11491;41.942;24.220;2022-11-23T05:19:59;6.45;;;3.25;;
22648;SDS011;11491;41.942;24.220;2022-11-23T05:22:26;10.02;;;7.45;;
22648;SDS011;11491;41.942;24.220;2022-11-23T05:24:53;24.83;;;16.35;;
22648;SDS011;11491;41.942;24.220;2022-11-23T05:27:19;19.08;;;14.05;;
22648;SDS011;11491;41.942;24.220;2022-11-23T05:29:46;17.65;;;12.00;;
22648;SDS011;11491;41.942;24.220;2022-11-23T05:32:13;12.05;;;8.80;;
22648;SDS011;11491;41.942;24.220;2022-11-23T05:34:40;28.50;;;24.73;;
22648;SDS011;11491;41.942;24.220;2022-11-23T05:37:08;160.68;;;116.32;;
22648;SDS011;11491;41.942;24.220;2022-11-23T05:39:34;122.15;;;84.63;;
22648;SDS011;11491;41.942;24.220;2022-11-23T05:42:01;62.22;;;47.08;;
22648;SDS011;11491;41.942;24.220;2022-11-23T05:44:29;39.75;;;27.67;;
22648;SDS011;11491;41.942;24.220;2022-11-23T05:46:56;45.13;;;34.75;;
22648;SDS011;11491;41.942;24.220;2022-11-23T05:49:23;51.40;;;35.15;;
22648;SDS011;11491;41.942;24.220;2022-11-23T05:51:49;55.80;;;38.47;;
22648;SDS011;11491;41.942;24.220;2022-11-23T05:54:17;46.58;;;33.22;;
22648;SDS011;11491;41.942;24.220;2022-11-23T05:56:44;77.68;;;55.63;;
22648;SDS011;11491;41.942;24.220;2022-11-23T05:59:11;149.93;;;85.45;;
22648;SDS011;11491;41.942;24.220;2022-11-23T06:01:38;113.93;;;68.53;;
22648;SDS011;11491;41.942;24.220;2022-11-23T06:04:04;81.13;;;53.72;;
22648;SDS011;11491;41.942;24.220;2022-11-23T06:06:31;147.90;;;87.07;;
22648;SDS011;11491;41.942;24.220;2022-11-23T06:08:58;148.80;;;92.93;;
22648;SDS011;11491;41.942;24.220;2022-11-23T06:11:26;167.65;;;109.60;;
22648;SDS011;11491;41.942;24.220;2022-11-23T06:13:55;105.75;;;66.68;;
22648;SDS011;11491;41.942;24.220;2022-11-23T06:16:22;88.85;;;55.58;;
22648;SDS011;11491;41.942;24.220;2022-11-23T06:18:49;84.00;;;54.63;;
22648;SDS011;11491;41.942;24.220;2022-11-23T06:21:15;112.95;;;69.45;;
22648;SDS011;11491;41.942;24.220;2022-11-23T06:23:42;144.55;;;93.32;;
22648;SDS011;11491;41.942;24.220;2022-11-23T06:26:09;77.35;;;49.78;;
22648;SDS011;11491;41.942;24.220;2022-11-23T06:28:37;86.25;;;57.75;;
22648;SDS011;11491;41.942;24.220;2022-11-23T06:31:05;62.67;;;44.83;;
22648;SDS011;11491;41.942;24.220;2022-11-23T06:33:32;47.90;;;35.65;;
22648;SDS011;11491;41.942;24.220;2022-11-23T06:36:01;13.05;;;9.43;;
22648;SDS011;11491;41.942;24.220;2022-11-23T06:38:28;9.02;;;6.15;;
22648;SDS011;11491;41.942;24.220;2022-11-23T06:40:56;55.92;;;21.88;;
22648;SDS011;11491;41.942;24.220;2022-11-23T06:43:24;2.17;;;1.23;;
22648;SDS011;11491;41.942;24.220;2022-11-23T06:45:52;11.07;;;6.20;;
22648;SDS011;11491;41.942;24.220;2022-11-23T06:48:19;12.10;;;8.10;;
22648;SDS011;11491;41.942;24.220;2022-11-23T06:50:46;12.60;;;9.10;;
22648;SDS011;11491;41.942;24.220;2022-11-23T06:53:13;17.10;;;13.40;;
22648;SDS011;11491;41.942;24.220;2022-11-23T06:55:40;29.33;;;18.10;;
22648;SDS011;11491;41.942;24.220;2022-11-23T06:58:07;12.95;;;9.68;;
22648;SDS011;11491;41.942;24.220;2022-11-23T07:00:34;44.33;;;34.15;;
22648;SDS011;11491;41.942;24.220;2022-11-23T07:03:02;38.50;;;27.08;;
22648;SDS011;11491;41.942;24.220;2022-11-23T07:05:29;25.60;;;18.90;;
22648;SDS011;11491;41.942;24.220;2022-11-23T07:07:56;30.17;;;26.88;;
22648;SDS011;11491;41.942;24.220;2022-11-23T07:10:22;18.02;;;15.10;;
22648;SDS011;11491;41.942;24.220;2022-11-23T07:12:50;5.55;;;3.83;;
22648;SDS011;11491;41.942;24.220;2022-11-23T07:15:17;14.93;;;10.07;;
22648;SDS011;11491;41.942;24.220;2022-11-23T07:17:43;13.55;;;9.50;;
22648;SDS011;11491;41.942;24.220;2022-11-23T07:20:12;2.03;;;1.20;;
22648;SDS011;11491;41.942;24.220;2022-11-23T07:22:39;5.03;;;3.42;;
22648;SDS011;11491;41.942;24.220;2022-11-23T07:25:06;4.82;;;3.90;;
22648;SDS011;11491;41.942;24.220;2022-11-23T07:27:33;3.78;;;1.85;;
22648;SDS011;11491;41.942;24.220;2022-11-23T07:30:00;6.28;;;3.97;;
22648;SDS011;11491;41.942;24.220;2022-11-23T07:32:27;9.15;;;6.00;;
22648;SDS011;11491;41.942;24.220;2022-11-23T07:34:54;5.32;;;3.95;;
22648;SDS011;11491;41.942;24.220;2022-11-23T07:37:22;13.70;;;9.57;;
22648;SDS011;11491;41.942;24.220;2022-11-23T07:39:49;8.13;;;4.78;;
22648;SDS011;11491;41.942;24.220;2022-11-23T07:42:17;3.75;;;2.40;;
22648;SDS011;11491;41.942;24.220;2022-11-23T07:44:43;4.28;;;3.05;;
22648;SDS011;11491;41.942;24.220;2022-11-23T07:47:10;6.28;;;5.15;;
22648;SDS011;11491;41.942;24.220;2022-11-23T07:49:37;9.80;;;6.75;;
22648;SDS011;11491;41.942;24.220;2022-11-23T07:52:04;7.53;;;5.75;;
22648;SDS011;11491;41.942;24.220;2022-11-23T07:54:32;6.43;;;3.85;;
22648;SDS011;11491;41.942;24.220;2022-11-23T07:56:59;3.92;;;3.05;;
22648;SDS011;11491;41.942;24.220;2022-11-23T07:59:25;4.10;;;3.10;;
22648;SDS011;11491;41.942;24.220;2022-11-23T08:01:52;4.43;;;3.45;;
22648;SDS011;11491;41.942;24.220;2022-11-23T08:04:19;2.60;;;1.85;;
22648;SDS011;11491;41.942;24.220;2022-11-23T08:06:47;5.25;;;2.65;;
22648;SDS011;11491;41.942;24.220;2022-11-23T08:09:13;25.35;;;13.45;;
22648;SDS011;11491;41.942;24.220;2022-11-23T08:11:41;23.17;;;16.08;;
22648;SDS011;11491;41.942;24.220;2022-11-23T08:14:08;24.58;;;17.48;;
22648;SDS011;11491;41.942;24.220;2022-11-23T08:16:35;22.45;;;14.52;;
22648;SDS011;11491;41.942;24.220;2022-11-23T08:19:02;21.08;;;12.75;;
22648;SDS011;11491;41.942;24.220;2022-11-23T08:21:29;9.75;;;7.28;;
22648;SDS011;11491;41.942;24.220;2022-11-23T08:23:55;12.77;;;8.00;;
22648;SDS011;11491;41.942;24.220;2022-11-23T08:26:22;13.65;;;10.77;;
22648;SDS011;11491;41.942;24.220;2022-11-23T08:28:50;8.70;;;5.43;;
22648;SDS011;11491;41.942;24.220;2022-11-23T08:31:17;13.32;;;8.70;;
22648;SDS011;11491;41.942;24.220;2022-11-23T08:33:44;7.32;;;4.93;;
22648;SDS011;11491;41.942;24.220;2022-11-23T08:36:10;14.82;;;8.68;;
22648;SDS011;11491;41.942;24.220;2022-11-23T08:38:37;13.18;;;7.82;;
22648;SDS011;11491;41.942;24.220;2022-11-23T08:41:04;7.45;;;4.50;;
22648;SDS011;11491;41.942;24.220;2022-11-23T08:43:31;12.70;;;7.60;;
22648;SDS011;11491;41.942;24.220;2022-11-23T08:46:00;17.67;;;9.25;;
22648;SDS011;11491;41.942;24.220;2022-11-23T08:48:27;1.88;;;1.02;;
22648;SDS011;11491;41.942;24.220;2022-11-23T08:50:57;5.20;;;3.25;;
22648;SDS011;11491;41.942;24.220;2022-11-23T08:53:24;6.47;;;3.75;;
22648;SDS011;11491;41.942;24.220;2022-11-23T08:55:51;5.57;;;2.88;;
22648;SDS011;11491;41.942;24.220;2022-11-23T08:58:18;9.68;;;6.28;;
22648;SDS011;11491;41.942;24.220;2022-11-23T09:00:45;14.35;;;9.07;;
22648;SDS011;11491;41.942;24.220;2022-11-23T09:03:13;10.27;;;3.53;;
22648;SDS011;11491;41.942;24.220;2022-11-23T09:05:39;5.50;;;3.72;;
22648;SDS011;11491;41.942;24.220;2022-11-23T09:08:06;5.43;;;2.95;;
22648;SDS011;11491;41.942;24.220;2022-11-23T09:10:33;14.30;;;9.05;;
22648;SDS011;11491;41.942;24.220;2022-11-23T09:13:01;5.10;;;2.47;;
22648;SDS011;11491;41.942;24.220;2022-11-23T09:15:28;4.55;;;2.28;;
22648;SDS011;11491;41.942;24.220;2022-11-23T09:17:55;8.27;;;4.28;;
22648;SDS011;11491;41.942;24.220;2022-11-23T09:20:23;12.77;;;6.88;;
22648;SDS011;11491;41.942;24.220;2022-11-23T09:22:51;19.10;;;14.07;;
22648;SDS011;11491;41.942;24.220;2022-11-23T09:25:18;4.45;;;1.92;;
22648;SDS011;11491;41.942;24.220;2022-11-23T09:27:45;16.40;;;8.07;;
22648;SDS011;11491;41.942;24.220;2022-11-23T09:30:12;12.85;;;6.65;;
22648;SDS011;11491;41.942;24.220;2022-11-23T09:32:40;7.07;;;3.60;;
22648;SDS011;11491;41.942;24.220;2022-11-23T09:35:07;10.52;;;5.30;;
22648;SDS011;11491;41.942;24.220;2022-11-23T09:37:35;7.07;;;4.10;;
22648;SDS011;11491;41.942;24.220;2022-11-23T09:40:02;10.35;;;6.05;;
22648;SDS011;11491;41.942;24.220;2022-11-23T09:42:36;7.22;;;2.90;;
22648;SDS011;11491;41.942;24.220;2022-11-23T09:45:18;13.48;;;3.80;;
22648;SDS011;11491;41.942;24.220;2022-11-23T09:47:55;22.05;;;7.90;;
22648;SDS011;11491;41.942;24.220;2022-11-23T09:50:40;22.48;;;7.45;;
22648;SDS011;11491;41.942;24.220;2022-11-23T09:53:14;17.80;;;6.45;;
22648;SDS011;11491;41.942;24.220;2022-11-23T09:55:43;7.88;;;4.05;;
22648;SDS011;11491;41.942;24.220;2022-11-23T09:58:13;7.13;;;2.97;;
22648;SDS011;11491;41.942;24.220;2022-11-23T10:00:43;14.05;;;4.88;;
22648;SDS011;11491;41.942;24.220;2022-11-23T10:03:14;10.57;;;4.43;;
22648;SDS011;11491;41.942;24.220;2022-11-23T10:05:43;8.80;;;3.67;;
22648;SDS011;11491;41.942;24.220;2022-11-23T10:08:25;4.90;;;2.05;;
22648;SDS011;11491;41.942;24.220;2022-11-23T10:11:02;17.70;;;5.70;;
22648;SDS011;11491;41.942;24.220;2022-11-23T10:13:47;3.38;;;1.40;;
22648;SDS011;11491;41.942;24.220;2022-11-23T10:16:27;4.07;;;1.63;;
22648;SDS011;11491;41.942;24.220;2022-11-23T10:19:04;3.65;;;0.85;;
22648;SDS011;11491;41.942;24.220;2022-11-23T10:21:46;2.58;;;1.20;;
22648;SDS011;11491;41.942;24.220;2022-11-23T10:24:21;2.60;;;0.90;;
22648;SDS011;11491;41.942;24.220;2022-11-23T10:26:53;15.90;;;6.43;;
22648;SDS011;11491;41.942;24.220;2022-11-23T10:29:21;6.15;;;2.35;;
22648;SDS011;11491;41.942;24.220;2022-11-23T10:31:53;9.35;;;3.17;;
22648;SDS011;11491;41.942;24.220;2022-11-23T10:34:23;6.15;;;2.90;;
22648;SDS011;11491;41.942;24.220;2022-11-23T10:37:06;5.70;;;2.53;;
22648;SDS011;11491;41.942;24.220;2022-11-23T10:39:36;4.97;;;2.20;;
22648;SDS011;11491;41.942;24.220;2022-11-23T10:42:03;4.63;;;2.47;;
22648;SDS011;11491;41.942;24.220;2022-11-23T10:44:39;16.13;;;10.30;;
22648;SDS011;11491;41.942;24.220;2022-11-23T10:47:07;10.05;;;3.00;;
22648;SDS011;11491;41.942;24.220;2022-11-23T10:49:34;4.75;;;2.33;;
22648;SDS011;11491;41.942;24.220;2022-11-23T10:52:02;10.32;;;4.72;;
22648;SDS011;11491;41.942;24.220;2022-11-23T10:54:31;5.63;;;3.35;;
22648;SDS011;11491;41.942;24.220;2022-11-23T10:57:02;3.03;;;1.48;;
22648;SDS011;11491;41.942;24.220;2022-11-23T10:59:55;3.13;;;0.98;;
22648;SDS011;11491;41.942;24.220;2022-11-23T11:02:23;3.25;;;1.23;;
22648;SDS011;11491;41.942;24.220;2022-11-23T11:04:55;2.95;;;1.30;;
22648;SDS011;11491;41.942;24.220;2022-11-23T11:07:49;2.70;;;1.50;;
22648;SDS011;11491;41.942;24.220;2022-11-23T11:13:01;5.40;;;2.10;;
22648;SDS011;11491;41.942;24.220;2022-11-23T11:15:29;3.50;;;1.40;;
22648;SDS011;11491;41.942;24.220;2022-11-23T11:17:56;4.18;;;1.58;;
22648;SDS011;11491;41.942;24.220;2022-11-23T11:20:33;2.80;;;1.80;;
22648;SDS011;11491;41.942;24.220;2022-11-23T11:23:02;4.45;;;1.00;;
22648;SDS011;11491;41.942;24.220;2022-11-23T11:25:40;9.98;;;4.45;;
22648;SDS011;11491;41.942;24.220;2022-11-23T11:28:17;5.85;;;2.10;;
22648;SDS011;11491;41.942;24.220;2022-11-23T11:30:51;2.33;;;0.82;;
22648;SDS011;11491;41.942;24.220;2022-11-23T11:33:27;1.90;;;0.75;;
22648;SDS011;11491;41.942;24.220;2022-11-23T11:35:59;1.35;;;0.73;;
22648;SDS011;11491;41.942;24.220;2022-11-23T11:38:29;1.70;;;0.90;;
22648;SDS011;11491;41.942;24.220;2022-11-23T11:41:01;3.28;;;1.30;;
22648;SDS011;11491;41.942;24.220;2022-11-23T11:43:35;4.95;;;0.95;;
22648;SDS011;11491;41.942;24.220;2022-11-23T11:46:09;3.75;;;1.63;;
22648;SDS011;11491;41.942;24.220;2022-11-23T11:48:40;4.30;;;2.50;;
22648;SDS011;11491;41.942;24.220;2022-11-23T11:51:10;4.50;;;1.98;;
22648;SDS011;11491;41.942;24.220;2022-11-23T11:53:44;5.47;;;1.95;;
22648;SDS011;11491;41.942;24.220;2022-11-23T11:56:21;3.60;;;2.30;;
22648;SDS011;11491;41.942;24.220;2022-11-23T11:58:55;5.97;;;3.58;;
22648;SDS011;11491;41.942;24.220;2022-11-23T12:01:31;3.75;;;2.03;;
22648;SDS011;11491;41.942;24.220;2022-11-23T12:04:02;4.63;;;2.90;;
22648;SDS011;11491;41.942;24.220;2022-11-23T12:06:34;4.15;;;2.08;;
22648;SDS011;11491;41.942;24.220;2022-11-23T12:09:06;3.28;;;1.88;;
22648;SDS011;11491;41.942;24.220;2022-11-23T12:11:38;3.05;;;1.55;;
22648;SDS011;11491;41.942;24.220;2022-11-23T12:14:07;3.80;;;1.00;;
22648;SDS011;11491;41.942;24.220;2022-11-23T12:16:38;2.15;;;1.13;;
22648;SDS011;11491;41.942;24.220;2022-11-23T12:19:14;3.10;;;2.05;;
22648;SDS011;11491;41.942;24.220;2022-11-23T12:24:56;1.00;;;0.70;;
22648;SDS011;11491;41.942;24.220;2022-11-23T12:27:36;3.78;;;0.73;;
22648;SDS011;11491;41.942;24.220;2022-11-23T12:30:21;1.02;;;0.60;;
22648;SDS011;11491;41.942;24.220;2022-11-23T12:33:10;1.30;;;0.50;;
22648;SDS011;11491;41.942;24.220;2022-11-23T12:35:52;1.55;;;0.90;;
22648;SDS011;11491;41.942;24.220;2022-11-23T12:38:28;4.32;;;2.70;;
22648;SDS011;11491;41.942;24.220;2022-11-23T12:44:01;6.55;;;3.38;;
22648;SDS011;11491;41.942;24.220;2022-11-23T12:46:48;15.77;;;12.77;;
22648;SDS011;11491;41.942;24.220;2022-11-23T12:51:54;1.65;;;0.85;;
22648;SDS011;11491;41.942;24.220;2022-11-23T12:54:34;6.03;;;2.92;;
22648;SDS011;11491;41.942;24.220;2022-11-23T12:57:17;5.65;;;3.30;;
22648;SDS011;11491;41.942;24.220;2022-11-23T12:59:49;7.07;;;3.15;;
22648;SDS011;11491;41.942;24.220;2022-11-23T13:02:38;6.47;;;4.43;;
22648;SDS011;11491;41.942;24.220;2022-11-23T13:05:52;6.90;;;1.50;;
22648;SDS011;11491;41.942;24.220;2022-11-23T13:08:34;3.03;;;1.67;;
22648;SDS011;11491;41.942;24.220;2022-11-23T13:11:18;1.42;;;0.93;;
22648;SDS011;11491;41.942;24.220;2022-11-23T13:13:57;4.68;;;2.17;;
22648;SDS011;11491;41.942;24.220;2022-11-23T13:16:40;5.80;;;3.05;;
22648;SDS011;11491;41.942;24.220;2022-11-23T13:22:16;0.55;;;0.50;;
22648;SDS011;11491;41.942;24.220;2022-11-23T13:24:58;3.92;;;1.60;;
22648;SDS011;11491;41.942;24.220;2022-11-23T13:30:27;4.20;;;3.10;;
22648;SDS011;11491;41.942;24.220;2022-11-23T13:32:57;39.47;;;27.67;;
22648;SDS011;11491;41.942;24.220;2022-11-23T13:38:22;20.83;;;16.85;;
22648;SDS011;11491;41.942;24.220;2022-11-23T13:40:53;12.98;;;8.63;;
22648;SDS011;11491;41.942;24.220;2022-11-23T13:43:22;11.70;;;10.27;;
22648;SDS011;11491;41.942;24.220;2022-11-23T13:46:11;2.20;;;1.10;;
22648;SDS011;11491;41.942;24.220;2022-11-23T13:48:47;6.40;;;3.45;;
22648;SDS011;11491;41.942;24.220;2022-11-23T13:51:22;4.82;;;1.88;;
22648;SDS011;11491;41.942;24.220;2022-11-23T13:53:51;3.92;;;1.70;;
22648;SDS011;11491;41.942;24.220;2022-11-23T13:56:24;10.00;;;5.32;;
22648;SDS011;11491;41.942;24.220;2022-11-23T13:58:56;14.88;;;12.13;;
22648;SDS011;11491;41.942;24.220;2022-11-23T14:04:28;5.07;;;4.57;;
22648;SDS011;11491;41.942;24.220;2022-11-23T14:06:57;5.80;;;4.82;;
22648;SDS011;11491;41.942;24.220;2022-11-23T14:09:32;6.32;;;5.70;;
22648;SDS011;11491;41.942;24.220;2022-11-23T14:12:11;9.18;;;7.93;;
22648;SDS011;11491;41.942;24.220;2022-11-23T14:14:48;7.90;;;5.40;;
22648;SDS011;11491;41.942;24.220;2022-11-23T14:20:33;21.63;;;14.52;;
22648;SDS011;11491;41.942;24.220;2022-11-23T14:23:19;11.93;;;6.88;;
22648;SDS011;11491;41.942;24.220;2022-11-23T14:26:02;8.88;;;4.30;;
22648;SDS011;11491;41.942;24.220;2022-11-23T14:28:44;18.48;;;13.40;;
22648;SDS011;11491;41.942;24.220;2022-11-23T14:31:20;15.68;;;10.50;;
22648;SDS011;11491;41.942;24.220;2022-11-23T14:33:58;10.45;;;5.38;;
22648;SDS011;11491;41.942;24.220;2022-11-23T14:36:34;12.43;;;8.68;;
22648;SDS011;11491;41.942;24.220;2022-11-23T14:39:29;12.25;;;8.40;;
22648;SDS011;11491;41.942;24.220;2022-11-23T14:42:14;4.60;;;3.70;;
22648;SDS011;11491;41.942;24.220;2022-11-23T14:44:44;24.05;;;19.48;;
22648;SDS011;11491;41.942;24.220;2022-11-23T14:47:12;19.38;;;14.85;;
22648;SDS011;11491;41.942;24.220;2022-11-23T14:49:47;57.67;;;42.45;;
22648;SDS011;11491;41.942;24.220;2022-11-23T14:52:15;39.78;;;29.55;;
22648;SDS011;11491;41.942;24.220;2022-11-23T14:54:48;11.25;;;9.30;;
22648;SDS011;11491;41.942;24.220;2022-11-23T14:57:16;8.40;;;5.70;;
22648;SDS011;11491;41.942;24.220;2022-11-23T14:59:46;5.85;;;3.70;;
22648;SDS011;11491;41.942;24.220;2022-11-23T15:02:15;30.35;;;24.77;;
22648;SDS011;11491;41.942;24.220;2022-11-23T15:04:53;18.27;;;9.90;;
22648;SDS011;11491;41.942;24.220;2022-11-23T15:07:37;27.58;;;15.40;;
22648;SDS011;11491;41.942;24.220;2022-11-23T15:13:18;24.85;;;19.35;;